sensor_id;sensor_type;location;lat;lon;timestamp;temperature;humidity
3756;DHT22;1893;52.526;13.360;2023-03-03T00:01:22;0.10;99.90
3756;DHT22;1893;52.526;13.360;2023-03-03T00:03:50;0.20;99.90
3756;DHT22;1893;52.526;13.360;2023-03-03T00:06:16;0.20;99.90
3756;DHT22;1893;52.526;13.360;2023-03-03T00:08:41;0.10;99.90
3756;DHT22;1893;52.526;13.360;2023-03-03T00:11:08;0.00;99.90
3756;DHT22;1893;52.526;13.360;2023-03-03T00:13:54;0.00;99.90
3756;DHT22;1893;52.526;13.360;2023-03-03T00:16:24;0.10;99.90
3756;DHT22;1893;52.526;13.360;2023-03-03T00:18:51;0.00;99.90
3756;DHT22;1893;52.526;13.360;2023-03-03T00:26:53;0.10;99.90
3756;DHT22;1893;52.526;13.360;2023-03-03T00:29:34;0.10;99.90
3756;DHT22;1893;52.526;13.360;2023-03-03T00:32:20;0.10;99.90
3756;DHT22;1893;52.526;13.360;2023-03-03T00:34:46;0.00;99.90
3756;DHT22;1893;52.526;13.360;2023-03-03T00:37:30;0.10;99.90
3756;DHT22;1893;52.526;13.360;2023-03-03T00:42:39;0.10;99.90
3756;DHT22;1893;52.526;13.360;2023-03-03T00:50:53;0.00;99.90
3756;DHT22;1893;52.526;13.360;2023-03-03T00:53:21;0.00;99.90
3756;DHT22;1893;52.526;13.360;2023-03-03T00:55:48;0.00;99.90
3756;DHT22;1893;52.526;13.360;2023-03-03T00:58:15;0.10;99.90
3756;DHT22;1893;52.526;13.360;2023-03-03T01:00:41;0.00;99.90
3756;DHT22;1893;52.526;13.360;2023-03-03T01:03:09;0.00;99.90
3756;DHT22;1893;52.526;13.360;2023-03-03T01:05:36;0.00;99.90
3756;DHT22;1893;52.526;13.360;2023-03-03T01:08:03;0.00;99.90
3756;DHT22;1893;52.526;13.360;2023-03-03T01:10:30;0.00;99.90
3756;DHT22;1893;52.526;13.360;2023-03-03T01:12:56;-0.10;99.90
3756;DHT22;1893;52.526;13.360;2023-03-03T01:15:23;0.00;99.90
3756;DHT22;1893;52.526;13.360;2023-03-03T01:17:49;0.00;99.90
3756;DHT22;1893;52.526;13.360;2023-03-03T01:20:15;-0.10;99.90
3756;DHT22;1893;52.526;13.360;2023-03-03T01:22:40;-0.10;99.90
3756;DHT22;1893;52.526;13.360;2023-03-03T01:25:06;0.00;99.90
3756;DHT22;1893;52.526;13.360;2023-03-03T01:27:34;0.10;99.90
3756;DHT22;1893;52.526;13.360;2023-03-03T01:30:00;0.10;99.90
3756;DHT22;1893;52.526;13.360;2023-03-03T01:32:26;0.00;99.90
3756;DHT22;1893;52.526;13.360;2023-03-03T01:34:53;0.00;99.90
3756;DHT22;1893;52.526;13.360;2023-03-03T01:37:19;0.10;99.90
3756;DHT22;1893;52.526;13.360;2023-03-03T01:39:52;0.10;99.90
3756;DHT22;1893;52.526;13.360;2023-03-03T01:42:18;0.10;99.90
3756;DHT22;1893;52.526;13.360;2023-03-03T01:44:44;0.10;99.90
3756;DHT22;1893;52.526;13.360;2023-03-03T01:49:52;0.10;99.90
3756;DHT22;1893;52.526;13.360;2023-03-03T01:52:29;0.10;99.90
3756;DHT22;1893;52.526;13.360;2023-03-03T01:55:00;0.00;99.90
3756;DHT22;1893;52.526;13.360;2023-03-03T01:57:31;0.00;99.90
3756;DHT22;1893;52.526;13.360;2023-03-03T01:59:58;-0.10;99.90
3756;DHT22;1893;52.526;13.360;2023-03-03T02:02:26;-0.10;99.90
3756;DHT22;1893;52.526;13.360;2023-03-03T02:04:52;-0.10;99.90
3756;DHT22;1893;52.526;13.360;2023-03-03T02:07:18;-0.10;99.90
3756;DHT22;1893;52.526;13.360;2023-03-03T02:10:05;0.00;99.90
3756;DHT22;1893;52.526;13.360;2023-03-03T02:12:43;-0.20;99.90
3756;DHT22;1893;52.526;13.360;2023-03-03T02:17:52;-0.30;99.90
3756;DHT22;1893;52.526;13.360;2023-03-03T02:28:23;-0.40;99.90
3756;DHT22;1893;52.526;13.360;2023-03-03T02:30:54;-0.30;99.90
3756;DHT22;1893;52.526;13.360;2023-03-03T02:33:19;-0.40;99.90
3756;DHT22;1893;52.526;13.360;2023-03-03T02:35:45;-0.40;99.90
3756;DHT22;1893;52.526;13.360;2023-03-03T02:40:48;-0.30;99.90
3756;DHT22;1893;52.526;13.360;2023-03-03T02:43:16;-0.30;99.90
3756;DHT22;1893;52.526;13.360;2023-03-03T02:45:44;-0.20;99.90
3756;DHT22;1893;52.526;13.360;2023-03-03T02:48:10;-0.40;99.90
3756;DHT22;1893;52.526;13.360;2023-03-03T02:50:36;-0.40;99.90
3756;DHT22;1893;52.526;13.360;2023-03-03T02:53:02;-0.30;99.90
3756;DHT22;1893;52.526;13.360;2023-03-03T02:55:28;-0.40;99.90
3756;DHT22;1893;52.526;13.360;2023-03-03T02:57:53;-0.50;99.90
3756;DHT22;1893;52.526;13.360;2023-03-03T03:00:19;-0.60;99.90
3756;DHT22;1893;52.526;13.360;2023-03-03T03:02:45;-0.70;99.90
3756;DHT22;1893;52.526;13.360;2023-03-03T03:05:11;-0.80;99.90
3756;DHT22;1893;52.526;13.360;2023-03-03T03:07:37;-0.70;99.90
3756;DHT22;1893;52.526;13.360;2023-03-03T03:10:03;-0.80;99.90
3756;DHT22;1893;52.526;13.360;2023-03-03T03:12:28;-0.80;99.90
3756;DHT22;1893;52.526;13.360;2023-03-03T03:14:54;-0.70;99.90
3756;DHT22;1893;52.526;13.360;2023-03-03T03:17:19;-0.60;99.90
3756;DHT22;1893;52.526;13.360;2023-03-03T03:19:45;-0.70;99.90
3756;DHT22;1893;52.526;13.360;2023-03-03T03:22:11;-0.70;99.90
3756;DHT22;1893;52.526;13.360;2023-03-03T03:24:36;-0.80;99.90
3756;DHT22;1893;52.526;13.360;2023-03-03T03:27:02;-0.80;99.90
3756;DHT22;1893;52.526;13.360;2023-03-03T03:29:27;-0.80;99.90
3756;DHT22;1893;52.526;13.360;2023-03-03T03:31:53;-0.70;99.90
3756;DHT22;1893;52.526;13.360;2023-03-03T03:34:19;-0.80;99.90
3756;DHT22;1893;52.526;13.360;2023-03-03T03:36:44;-0.80;99.90
3756;DHT22;1893;52.526;13.360;2023-03-03T03:39:11;-0.80;99.90
3756;DHT22;1893;52.526;13.360;2023-03-03T03:41:37;-0.80;99.90
3756;DHT22;1893;52.526;13.360;2023-03-03T03:44:03;-0.70;99.90
3756;DHT22;1893;52.526;13.360;2023-03-03T03:46:28;-0.80;99.90
3756;DHT22;1893;52.526;13.360;2023-03-03T03:48:54;-0.80;99.90
3756;DHT22;1893;52.526;13.360;2023-03-03T03:51:20;-0.80;99.90
3756;DHT22;1893;52.526;13.360;2023-03-03T03:53:45;-0.80;99.90
3756;DHT22;1893;52.526;13.360;2023-03-03T03:56:11;-0.70;99.90
3756;DHT22;1893;52.526;13.360;2023-03-03T03:58:37;-0.70;99.90
3756;DHT22;1893;52.526;13.360;2023-03-03T04:01:06;-0.70;99.90
3756;DHT22;1893;52.526;13.360;2023-03-03T04:03:32;-0.70;99.90
3756;DHT22;1893;52.526;13.360;2023-03-03T04:05:58;-0.70;99.90
3756;DHT22;1893;52.526;13.360;2023-03-03T04:08:23;-0.80;99.90
3756;DHT22;1893;52.526;13.360;2023-03-03T04:10:49;-0.80;99.90
3756;DHT22;1893;52.526;13.360;2023-03-03T04:13:14;-0.90;99.90
3756;DHT22;1893;52.526;13.360;2023-03-03T04:15:41;-0.90;99.90
3756;DHT22;1893;52.526;13.360;2023-03-03T04:18:06;-0.90;99.90
3756;DHT22;1893;52.526;13.360;2023-03-03T04:20:32;-0.90;99.90
3756;DHT22;1893;52.526;13.360;2023-03-03T04:22:57;-0.80;99.90
3756;DHT22;1893;52.526;13.360;2023-03-03T04:25:23;-0.90;99.90
3756;DHT22;1893;52.526;13.360;2023-03-03T04:27:49;-1.00;99.90
3756;DHT22;1893;52.526;13.360;2023-03-03T04:30:16;-1.00;99.90
3756;DHT22;1893;52.526;13.360;2023-03-03T04:32:42;-1.00;99.90
3756;DHT22;1893;52.526;13.360;2023-03-03T04:35:08;-1.00;99.90
3756;DHT22;1893;52.526;13.360;2023-03-03T04:37:35;-0.80;99.90
3756;DHT22;1893;52.526;13.360;2023-03-03T04:40:01;-0.90;99.90
3756;DHT22;1893;52.526;13.360;2023-03-03T04:42:26;-1.00;99.90
3756;DHT22;1893;52.526;13.360;2023-03-03T04:44:53;-1.00;99.90
3756;DHT22;1893;52.526;13.360;2023-03-03T04:47:18;-1.00;99.90
3756;DHT22;1893;52.526;13.360;2023-03-03T04:49:44;-0.90;99.90
3756;DHT22;1893;52.526;13.360;2023-03-03T04:52:11;-0.90;99.90
3756;DHT22;1893;52.526;13.360;2023-03-03T04:54:36;-0.80;99.90
3756;DHT22;1893;52.526;13.360;2023-03-03T04:57:02;-0.80;99.90
3756;DHT22;1893;52.526;13.360;2023-03-03T04:59:28;-0.90;99.90
3756;DHT22;1893;52.526;13.360;2023-03-03T05:01:53;-0.90;99.90
3756;DHT22;1893;52.526;13.360;2023-03-03T05:04:19;-1.00;99.90
3756;DHT22;1893;52.526;13.360;2023-03-03T05:06:44;-1.00;99.90
3756;DHT22;1893;52.526;13.360;2023-03-03T05:09:10;-1.00;99.90
3756;DHT22;1893;52.526;13.360;2023-03-03T05:11:35;-1.00;99.90
3756;DHT22;1893;52.526;13.360;2023-03-03T05:14:01;-1.10;99.90
3756;DHT22;1893;52.526;13.360;2023-03-03T05:16:27;-1.10;99.90
3756;DHT22;1893;52.526;13.360;2023-03-03T05:18:53;-1.00;99.90
3756;DHT22;1893;52.526;13.360;2023-03-03T05:21:18;-1.00;99.90
3756;DHT22;1893;52.526;13.360;2023-03-03T05:23:44;-0.90;99.90
3756;DHT22;1893;52.526;13.360;2023-03-03T05:26:10;-0.80;99.90
3756;DHT22;1893;52.526;13.360;2023-03-03T05:28:35;-0.80;99.90
3756;DHT22;1893;52.526;13.360;2023-03-03T05:31:01;-0.80;99.90
3756;DHT22;1893;52.526;13.360;2023-03-03T05:33:27;-0.80;99.90
3756;DHT22;1893;52.526;13.360;2023-03-03T05:35:54;-0.90;99.90
3756;DHT22;1893;52.526;13.360;2023-03-03T05:38:19;-0.80;99.90
3756;DHT22;1893;52.526;13.360;2023-03-03T05:40:46;-0.90;99.90
3756;DHT22;1893;52.526;13.360;2023-03-03T05:43:11;-1.00;99.90
3756;DHT22;1893;52.526;13.360;2023-03-03T05:45:37;-0.90;99.90
3756;DHT22;1893;52.526;13.360;2023-03-03T05:48:03;-1.10;99.90
3756;DHT22;1893;52.526;13.360;2023-03-03T05:50:29;-1.00;99.90
3756;DHT22;1893;52.526;13.360;2023-03-03T05:52:55;-1.00;99.90
3756;DHT22;1893;52.526;13.360;2023-03-03T05:55:21;-1.00;99.90
3756;DHT22;1893;52.526;13.360;2023-03-03T05:57:46;-1.10;99.90
3756;DHT22;1893;52.526;13.360;2023-03-03T06:00:13;-1.10;99.90
3756;DHT22;1893;52.526;13.360;2023-03-03T06:02:39;-1.00;99.90
3756;DHT22;1893;52.526;13.360;2023-03-03T06:05:06;-1.00;99.90
3756;DHT22;1893;52.526;13.360;2023-03-03T06:07:32;-1.10;99.90
3756;DHT22;1893;52.526;13.360;2023-03-03T06:09:58;-1.10;99.90
3756;DHT22;1893;52.526;13.360;2023-03-03T06:12:23;-1.10;99.90
3756;DHT22;1893;52.526;13.360;2023-03-03T06:14:49;-1.10;99.90
3756;DHT22;1893;52.526;13.360;2023-03-03T06:17:14;-1.10;99.90
3756;DHT22;1893;52.526;13.360;2023-03-03T06:19:40;-1.00;99.90
3756;DHT22;1893;52.526;13.360;2023-03-03T06:22:07;-1.10;99.90
3756;DHT22;1893;52.526;13.360;2023-03-03T06:24:33;-1.00;99.90
3756;DHT22;1893;52.526;13.360;2023-03-03T06:26:59;-1.20;99.90
3756;DHT22;1893;52.526;13.360;2023-03-03T06:29:25;-1.20;99.90
3756;DHT22;1893;52.526;13.360;2023-03-03T06:31:51;-1.10;99.90
3756;DHT22;1893;52.526;13.360;2023-03-03T06:34:18;-1.20;99.90
3756;DHT22;1893;52.526;13.360;2023-03-03T06:36:44;-1.10;99.90
3756;DHT22;1893;52.526;13.360;2023-03-03T06:39:09;-1.00;99.90
3756;DHT22;1893;52.526;13.360;2023-03-03T06:41:35;-1.10;99.90
3756;DHT22;1893;52.526;13.360;2023-03-03T06:44:01;-1.10;99.90
3756;DHT22;1893;52.526;13.360;2023-03-03T06:46:26;-1.10;99.90
3756;DHT22;1893;52.526;13.360;2023-03-03T06:48:53;-1.20;99.90
3756;DHT22;1893;52.526;13.360;2023-03-03T06:51:31;-1.20;99.90
3756;DHT22;1893;52.526;13.360;2023-03-03T06:54:01;-1.20;99.90
3756;DHT22;1893;52.526;13.360;2023-03-03T06:56:27;-1.20;99.90
3756;DHT22;1893;52.526;13.360;2023-03-03T06:58:55;-1.10;99.90
3756;DHT22;1893;52.526;13.360;2023-03-03T07:01:21;-1.00;99.90
3756;DHT22;1893;52.526;13.360;2023-03-03T07:03:46;-0.90;99.90
3756;DHT22;1893;52.526;13.360;2023-03-03T07:08:43;-0.80;99.90
3756;DHT22;1893;52.526;13.360;2023-03-03T07:11:13;-0.80;99.90
3756;DHT22;1893;52.526;13.360;2023-03-03T07:13:43;-0.70;99.90
3756;DHT22;1893;52.526;13.360;2023-03-03T07:16:12;-0.80;99.90
3756;DHT22;1893;52.526;13.360;2023-03-03T07:21:22;-0.60;99.90
3756;DHT22;1893;52.526;13.360;2023-03-03T07:23:50;-0.90;99.90
3756;DHT22;1893;52.526;13.360;2023-03-03T07:26:22;-1.00;99.90
3756;DHT22;1893;52.526;13.360;2023-03-03T07:31:45;-1.20;99.90
3756;DHT22;1893;52.526;13.360;2023-03-03T07:34:21;-1.20;99.90
3756;DHT22;1893;52.526;13.360;2023-03-03T07:36:49;-1.20;99.90
3756;DHT22;1893;52.526;13.360;2023-03-03T07:39:34;-1.00;99.90
3756;DHT22;1893;52.526;13.360;2023-03-03T07:45:01;-1.00;99.90
3756;DHT22;1893;52.526;13.360;2023-03-03T07:47:30;-0.90;99.90
3756;DHT22;1893;52.526;13.360;2023-03-03T07:50:07;-0.80;99.90
3756;DHT22;1893;52.526;13.360;2023-03-03T07:52:46;-0.70;99.90
3756;DHT22;1893;52.526;13.360;2023-03-03T07:55:36;-0.60;99.90
3756;DHT22;1893;52.526;13.360;2023-03-03T08:03:44;-0.60;99.90
3756;DHT22;1893;52.526;13.360;2023-03-03T08:11:50;-0.70;99.90
3756;DHT22;1893;52.526;13.360;2023-03-03T08:14:25;-0.70;99.90
3756;DHT22;1893;52.526;13.360;2023-03-03T08:16:51;-0.60;99.90
3756;DHT22;1893;52.526;13.360;2023-03-03T08:19:17;-0.50;99.90
3756;DHT22;1893;52.526;13.360;2023-03-03T08:21:43;-0.50;99.90
3756;DHT22;1893;52.526;13.360;2023-03-03T08:24:08;-0.30;99.90
3756;DHT22;1893;52.526;13.360;2023-03-03T08:26:34;-0.20;99.90
3756;DHT22;1893;52.526;13.360;2023-03-03T08:29:00;-0.20;99.90
3756;DHT22;1893;52.526;13.360;2023-03-03T08:31:26;-0.30;99.90
3756;DHT22;1893;52.526;13.360;2023-03-03T08:33:52;-0.20;99.90
3756;DHT22;1893;52.526;13.360;2023-03-03T08:36:18;-0.20;99.90
3756;DHT22;1893;52.526;13.360;2023-03-03T08:38:43;-0.20;99.90
3756;DHT22;1893;52.526;13.360;2023-03-03T08:41:09;-0.10;99.90
3756;DHT22;1893;52.526;13.360;2023-03-03T08:43:35;0.00;99.90
3756;DHT22;1893;52.526;13.360;2023-03-03T08:46:02;0.00;99.90
3756;DHT22;1893;52.526;13.360;2023-03-03T08:48:30;0.20;99.90
3756;DHT22;1893;52.526;13.360;2023-03-03T08:50:55;0.10;99.90
3756;DHT22;1893;52.526;13.360;2023-03-03T08:53:22;0.30;99.90
3756;DHT22;1893;52.526;13.360;2023-03-03T08:55:48;0.30;99.90
3756;DHT22;1893;52.526;13.360;2023-03-03T08:58:15;0.20;99.90
3756;DHT22;1893;52.526;13.360;2023-03-03T09:00:40;0.20;99.90
3756;DHT22;1893;52.526;13.360;2023-03-03T09:03:06;0.30;99.90
3756;DHT22;1893;52.526;13.360;2023-03-03T09:05:33;0.10;99.90
3756;DHT22;1893;52.526;13.360;2023-03-03T09:07:59;0.20;99.90
3756;DHT22;1893;52.526;13.360;2023-03-03T09:10:26;0.20;99.90
3756;DHT22;1893;52.526;13.360;2023-03-03T09:12:54;0.20;99.90
3756;DHT22;1893;52.526;13.360;2023-03-03T09:15:27;0.20;99.90
3756;DHT22;1893;52.526;13.360;2023-03-03T09:17:57;0.30;99.90
3756;DHT22;1893;52.526;13.360;2023-03-03T09:20:40;0.20;99.90
3756;DHT22;1893;52.526;13.360;2023-03-03T09:28:47;0.50;99.90
3756;DHT22;1893;52.526;13.360;2023-03-03T09:31:26;0.50;99.90
3756;DHT22;1893;52.526;13.360;2023-03-03T09:33:52;0.50;99.90
3756;DHT22;1893;52.526;13.360;2023-03-03T09:38:51;0.30;99.90
3756;DHT22;1893;52.526;13.360;2023-03-03T09:46:54;0.70;99.90
3756;DHT22;1893;52.526;13.360;2023-03-03T09:52:21;0.70;99.90
3756;DHT22;1893;52.526;13.360;2023-03-03T09:55:06;0.70;99.90
3756;DHT22;1893;52.526;13.360;2023-03-03T09:57:42;0.70;99.90
3756;DHT22;1893;52.526;13.360;2023-03-03T10:11:31;0.80;99.90
3756;DHT22;1893;52.526;13.360;2023-03-03T10:17:13;1.00;99.90
3756;DHT22;1893;52.526;13.360;2023-03-03T10:22:49;1.10;99.90
3756;DHT22;1893;52.526;13.360;2023-03-03T10:25:38;1.30;99.90
3756;DHT22;1893;52.526;13.360;2023-03-03T10:31:29;1.20;99.90
3756;DHT22;1893;52.526;13.360;2023-03-03T10:37:00;1.40;99.90
3756;DHT22;1893;52.526;13.360;2023-03-03T10:47:33;1.80;99.90
3756;DHT22;1893;52.526;13.360;2023-03-03T10:50:33;1.50;99.90
3756;DHT22;1893;52.526;13.360;2023-03-03T10:55:56;1.50;99.90
3756;DHT22;1893;52.526;13.360;2023-03-03T10:59:00;1.80;99.90
3756;DHT22;1893;52.526;13.360;2023-03-03T11:10:21;1.90;99.90
3756;DHT22;1893;52.526;13.360;2023-03-03T11:15:31;2.00;99.90
3756;DHT22;1893;52.526;13.360;2023-03-03T11:29:20;1.90;99.90
3756;DHT22;1893;52.526;13.360;2023-03-03T11:32:01;2.00;99.90
3756;DHT22;1893;52.526;13.360;2023-03-03T11:34:51;2.10;99.90
3756;DHT22;1893;52.526;13.360;2023-03-03T11:39:49;2.10;99.90
3756;DHT22;1893;52.526;13.360;2023-03-03T11:42:27;2.10;99.90
3756;DHT22;1893;52.526;13.360;2023-03-03T11:44:58;2.00;99.90
3756;DHT22;1893;52.526;13.360;2023-03-03T11:50:24;2.10;99.90
3756;DHT22;1893;52.526;13.360;2023-03-03T11:55:44;2.50;99.90
3756;DHT22;1893;52.526;13.360;2023-03-03T12:00:56;2.30;99.90
3756;DHT22;1893;52.526;13.360;2023-03-03T12:03:33;2.30;99.90
3756;DHT22;1893;52.526;13.360;2023-03-03T12:11:24;2.30;99.90
3756;DHT22;1893;52.526;13.360;2023-03-03T12:14:05;2.10;99.90
3756;DHT22;1893;52.526;13.360;2023-03-03T12:16:53;2.20;99.90
3756;DHT22;1893;52.526;13.360;2023-03-03T12:19:56;2.40;99.90
3756;DHT22;1893;52.526;13.360;2023-03-03T12:22:31;2.40;99.90
3756;DHT22;1893;52.526;13.360;2023-03-03T12:25:34;2.50;99.90
3756;DHT22;1893;52.526;13.360;2023-03-03T12:28:08;2.40;99.90
3756;DHT22;1893;52.526;13.360;2023-03-03T12:33:25;2.40;99.90
3756;DHT22;1893;52.526;13.360;2023-03-03T12:39:19;2.80;99.90
3756;DHT22;1893;52.526;13.360;2023-03-03T12:44:28;2.80;99.90
3756;DHT22;1893;52.526;13.360;2023-03-03T13:06:29;2.50;99.90
3756;DHT22;1893;52.526;13.360;2023-03-03T13:15:02;2.80;99.90
3756;DHT22;1893;52.526;13.360;2023-03-03T13:17:49;3.10;99.90
3756;DHT22;1893;52.526;13.360;2023-03-03T13:20:40;2.80;99.90
3756;DHT22;1893;52.526;13.360;2023-03-03T13:23:40;2.90;99.90
3756;DHT22;1893;52.526;13.360;2023-03-03T13:26:19;3.00;99.90
3756;DHT22;1893;52.526;13.360;2023-03-03T13:29:06;3.30;99.90
3756;DHT22;1893;52.526;13.360;2023-03-03T13:31:43;3.30;99.90
3756;DHT22;1893;52.526;13.360;2023-03-03T13:35:06;3.40;99.90
3756;DHT22;1893;52.526;13.360;2023-03-03T13:37:19;3.50;99.90
3756;DHT22;1893;52.526;13.360;2023-03-03T13:42:40;3.20;99.90
3756;DHT22;1893;52.526;13.360;2023-03-03T13:48:00;3.20;99.90
3756;DHT22;1893;52.526;13.360;2023-03-03T13:50:30;3.10;99.90
3756;DHT22;1893;52.526;13.360;2023-03-03T13:59:07;3.10;99.90
3756;DHT22;1893;52.526;13.360;2023-03-03T14:04:49;3.20;99.90
3756;DHT22;1893;52.526;13.360;2023-03-03T14:07:22;3.30;99.90
3756;DHT22;1893;52.526;13.360;2023-03-03T14:12:50;3.50;99.90
3756;DHT22;1893;52.526;13.360;2023-03-03T14:15:26;3.40;99.90
3756;DHT22;1893;52.526;13.360;2023-03-03T14:20:30;3.50;99.90
3756;DHT22;1893;52.526;13.360;2023-03-03T14:26:04;3.40;99.90
3756;DHT22;1893;52.526;13.360;2023-03-03T14:28:43;3.40;99.90
3756;DHT22;1893;52.526;13.360;2023-03-03T14:31:29;3.60;99.90
3756;DHT22;1893;52.526;13.360;2023-03-03T14:34:24;3.60;99.90
3756;DHT22;1893;52.526;13.360;2023-03-03T14:36:57;3.50;99.90
3756;DHT22;1893;52.526;13.360;2023-03-03T14:39:39;3.40;99.90
3756;DHT22;1893;52.526;13.360;2023-03-03T14:42:31;3.20;99.90
3756;DHT22;1893;52.526;13.360;2023-03-03T14:44:59;3.30;99.90
3756;DHT22;1893;52.526;13.360;2023-03-03T14:47:27;3.50;99.90
3756;DHT22;1893;52.526;13.360;2023-03-03T14:49:55;3.70;99.90
3756;DHT22;1893;52.526;13.360;2023-03-03T14:52:29;3.50;99.90
3756;DHT22;1893;52.526;13.360;2023-03-03T14:54:59;3.60;99.90
3756;DHT22;1893;52.526;13.360;2023-03-03T15:05:30;3.70;99.90
3756;DHT22;1893;52.526;13.360;2023-03-03T15:13:01;3.60;99.90
3756;DHT22;1893;52.526;13.360;2023-03-03T15:15:33;3.60;99.90
3756;DHT22;1893;52.526;13.360;2023-03-03T15:18:09;3.70;99.90
3756;DHT22;1893;52.526;13.360;2023-03-03T15:26:20;3.80;99.90
3756;DHT22;1893;52.526;13.360;2023-03-03T15:28:53;4.00;99.90
3756;DHT22;1893;52.526;13.360;2023-03-03T15:40:09;3.70;99.90
3756;DHT22;1893;52.526;13.360;2023-03-03T15:47:57;3.80;99.90
3756;DHT22;1893;52.526;13.360;2023-03-03T15:53:25;3.80;99.90
3756;DHT22;1893;52.526;13.360;2023-03-03T16:02:08;3.80;99.90
3756;DHT22;1893;52.526;13.360;2023-03-03T16:04:38;3.80;99.90
3756;DHT22;1893;52.526;13.360;2023-03-03T16:12:20;3.90;99.90
3756;DHT22;1893;52.526;13.360;2023-03-03T16:23:22;4.00;99.90
3756;DHT22;1893;52.526;13.360;2023-03-03T16:26:09;3.90;99.90
3756;DHT22;1893;52.526;13.360;2023-03-03T16:31:18;3.90;99.90
3756;DHT22;1893;52.526;13.360;2023-03-03T16:52:52;3.70;99.90
3756;DHT22;1893;52.526;13.360;2023-03-03T16:55:26;3.70;99.90
3756;DHT22;1893;52.526;13.360;2023-03-03T17:00:50;3.70;99.90
3756;DHT22;1893;52.526;13.360;2023-03-03T17:03:39;3.60;99.90
3756;DHT22;1893;52.526;13.360;2023-03-03T17:11:28;3.50;99.90
3756;DHT22;1893;52.526;13.360;2023-03-03T17:30:21;3.40;99.90
3756;DHT22;1893;52.526;13.360;2023-03-03T17:40:57;3.30;99.90
3756;DHT22;1893;52.526;13.360;2023-03-03T17:46:19;3.40;99.90
3756;DHT22;1893;52.526;13.360;2023-03-03T18:02:39;3.80;99.90
3756;DHT22;1893;52.526;13.360;2023-03-03T18:08:06;3.80;99.90
3756;DHT22;1893;52.526;13.360;2023-03-03T18:13:57;3.80;99.90
3756;DHT22;1893;52.526;13.360;2023-03-03T18:23:51;3.80;99.90
3756;DHT22;1893;52.526;13.360;2023-03-03T18:26:39;3.90;99.90
3756;DHT22;1893;52.526;13.360;2023-03-03T18:42:40;3.90;99.90
3756;DHT22;1893;52.526;13.360;2023-03-03T18:50:39;3.90;99.90
3756;DHT22;1893;52.526;13.360;2023-03-03T18:55:58;3.90;99.90
3756;DHT22;1893;52.526;13.360;2023-03-03T18:58:36;3.90;99.90
3756;DHT22;1893;52.526;13.360;2023-03-03T19:04:15;3.80;99.90
3756;DHT22;1893;52.526;13.360;2023-03-03T19:09:17;3.80;99.90
3756;DHT22;1893;52.526;13.360;2023-03-03T19:11:51;3.80;99.90
3756;DHT22;1893;52.526;13.360;2023-03-03T19:22:27;3.80;99.90
3756;DHT22;1893;52.526;13.360;2023-03-03T19:25:24;3.70;99.90
3756;DHT22;1893;52.526;13.360;2023-03-03T19:30:43;3.70;99.90
3756;DHT22;1893;52.526;13.360;2023-03-03T19:33:37;3.70;99.90
3756;DHT22;1893;52.526;13.360;2023-03-03T19:47:00;3.80;99.90
3756;DHT22;1893;52.526;13.360;2023-03-03T19:49:27;3.80;99.90
3756;DHT22;1893;52.526;13.360;2023-03-03T19:52:21;3.90;99.90
3756;DHT22;1893;52.526;13.360;2023-03-03T20:06:24;3.90;99.90
3756;DHT22;1893;52.526;13.360;2023-03-03T20:17:16;4.00;99.90
3756;DHT22;1893;52.526;13.360;2023-03-03T20:25:33;4.00;99.90
3756;DHT22;1893;52.526;13.360;2023-03-03T20:30:52;4.00;99.90
3756;DHT22;1893;52.526;13.360;2023-03-03T20:39:10;3.90;99.90
3756;DHT22;1893;52.526;13.360;2023-03-03T20:47:18;3.90;99.90
3756;DHT22;1893;52.526;13.360;2023-03-03T20:52:35;3.90;99.90
3756;DHT22;1893;52.526;13.360;2023-03-03T20:58:12;3.90;99.90
3756;DHT22;1893;52.526;13.360;2023-03-03T21:00:55;3.90;99.90
3756;DHT22;1893;52.526;13.360;2023-03-03T21:06:04;3.90;99.90
3756;DHT22;1893;52.526;13.360;2023-03-03T21:08:49;3.80;99.90
3756;DHT22;1893;52.526;13.360;2023-03-03T21:11:40;3.80;99.90
3756;DHT22;1893;52.526;13.360;2023-03-03T21:14:19;3.70;99.90
3756;DHT22;1893;52.526;13.360;2023-03-03T21:16:45;3.80;99.90
3756;DHT22;1893;52.526;13.360;2023-03-03T21:19:21;3.70;99.90
3756;DHT22;1893;52.526;13.360;2023-03-03T21:21:48;3.90;99.90
3756;DHT22;1893;52.526;13.360;2023-03-03T21:24:15;3.80;99.90
3756;DHT22;1893;52.526;13.360;2023-03-03T21:29:33;3.70;99.90
3756;DHT22;1893;52.526;13.360;2023-03-03T21:32:04;3.70;99.90
3756;DHT22;1893;52.526;13.360;2023-03-03T21:34:32;3.70;99.90
3756;DHT22;1893;52.526;13.360;2023-03-03T21:37:00;3.70;99.90
3756;DHT22;1893;52.526;13.360;2023-03-03T21:39:28;3.80;99.90
3756;DHT22;1893;52.526;13.360;2023-03-03T21:42:50;3.70;99.90
3756;DHT22;1893;52.526;13.360;2023-03-03T21:44:50;3.70;99.90
3756;DHT22;1893;52.526;13.360;2023-03-03T21:47:18;3.70;99.90
3756;DHT22;1893;52.526;13.360;2023-03-03T21:49:46;3.70;99.90
3756;DHT22;1893;52.526;13.360;2023-03-03T21:52:14;3.70;99.90
3756;DHT22;1893;52.526;13.360;2023-03-03T21:54:41;3.70;99.90
3756;DHT22;1893;52.526;13.360;2023-03-03T21:57:06;3.70;99.90
3756;DHT22;1893;52.526;13.360;2023-03-03T21:59:32;3.70;99.90
3756;DHT22;1893;52.526;13.360;2023-03-03T22:01:58;3.70;99.90
3756;DHT22;1893;52.526;13.360;2023-03-03T22:04:23;3.60;99.90
3756;DHT22;1893;52.526;13.360;2023-03-03T22:06:49;3.60;99.90
3756;DHT22;1893;52.526;13.360;2023-03-03T22:09:17;3.60;99.90
3756;DHT22;1893;52.526;13.360;2023-03-03T22:11:43;3.60;99.90
3756;DHT22;1893;52.526;13.360;2023-03-03T22:14:09;3.60;99.90
3756;DHT22;1893;52.526;13.360;2023-03-03T22:16:35;3.60;99.90
3756;DHT22;1893;52.526;13.360;2023-03-03T22:19:01;3.50;99.90
3756;DHT22;1893;52.526;13.360;2023-03-03T22:21:27;3.50;99.90
3756;DHT22;1893;52.526;13.360;2023-03-03T22:23:52;3.50;99.90
3756;DHT22;1893;52.526;13.360;2023-03-03T22:26:18;3.50;99.90
3756;DHT22;1893;52.526;13.360;2023-03-03T22:28:46;3.50;99.90
3756;DHT22;1893;52.526;13.360;2023-03-03T22:31:12;3.50;99.90
3756;DHT22;1893;52.526;13.360;2023-03-03T22:33:37;3.50;99.90
3756;DHT22;1893;52.526;13.360;2023-03-03T22:36:03;3.50;99.90
3756;DHT22;1893;52.526;13.360;2023-03-03T22:38:29;3.50;99.90
3756;DHT22;1893;52.526;13.360;2023-03-03T22:40:55;3.50;99.90
3756;DHT22;1893;52.526;13.360;2023-03-03T22:43:20;3.50;99.90
3756;DHT22;1893;52.526;13.360;2023-03-03T22:45:46;3.50;99.90
3756;DHT22;1893;52.526;13.360;2023-03-03T22:48:12;3.50;99.90
3756;DHT22;1893;52.526;13.360;2023-03-03T22:50:37;3.40;99.90
3756;DHT22;1893;52.526;13.360;2023-03-03T22:53:07;3.50;99.90
3756;DHT22;1893;52.526;13.360;2023-03-03T22:55:33;3.40;99.90
3756;DHT22;1893;52.526;13.360;2023-03-03T22:58:02;3.30;99.90
3756;DHT22;1893;52.526;13.360;2023-03-03T23:00:28;3.30;99.90
3756;DHT22;1893;52.526;13.360;2023-03-03T23:02:54;3.30;99.90
3756;DHT22;1893;52.526;13.360;2023-03-03T23:05:19;3.20;99.90
3756;DHT22;1893;52.526;13.360;2023-03-03T23:07:45;3.20;99.90
3756;DHT22;1893;52.526;13.360;2023-03-03T23:10:11;3.10;99.90
3756;DHT22;1893;52.526;13.360;2023-03-03T23:12:36;3.10;99.90
3756;DHT22;1893;52.526;13.360;2023-03-03T23:15:03;3.00;99.90
3756;DHT22;1893;52.526;13.360;2023-03-03T23:17:31;2.90;99.90
3756;DHT22;1893;52.526;13.360;2023-03-03T23:19:56;2.90;99.90
3756;DHT22;1893;52.526;13.360;2023-03-03T23:22:22;2.80;99.90
3756;DHT22;1893;52.526;13.360;2023-03-03T23:24:47;2.70;99.90
3756;DHT22;1893;52.526;13.360;2023-03-03T23:27:13;2.60;99.90
3756;DHT22;1893;52.526;13.360;2023-03-03T23:29:38;2.60;99.90
3756;DHT22;1893;52.526;13.360;2023-03-03T23:32:04;2.50;99.90
3756;DHT22;1893;52.526;13.360;2023-03-03T23:34:31;2.50;99.90